Open Full Screen Window  High Contrast Mode
Wind Gusting 00 knots
03
September 22, 2014 4:14 PM EDT
Weather Information
Wind Direction
  340 °
Wind Speed
  03 kt (3 mph)
Wind Gust
  00 kt (0 mph)
Altimeter
30.21 in
Visibility
10 SM
Temperature
18° C
64° F
Dewpoint
05° C
41° F
Humidity
43%
1hr Rain Fall
00.00 in.
24hr Rain Fall
00.00 in.
Sky Condition
Clear
VFR

METAR KI69 222014Z AUTO 34003KT 10SM CLR 18/05 A3021 RMK AO1

*Background is not an actual portrayal of the airport.